sensor_id;sensor_type;location;lat;lon;timestamp;pressure;altitude;pressure_sealevel;temperature;humidity
11444;BME280;5778;47.856;12.154;2023-01-30T00:01:51;96931.66;;;-2.37;100.00
11444;BME280;5778;47.856;12.154;2023-01-30T00:04:20;96929.19;;;-2.47;100.00
11444;BME280;5778;47.856;12.154;2023-01-30T00:06:47;96923.97;;;-2.47;100.00
11444;BME280;5778;47.856;12.154;2023-01-30T00:09:16;96920.34;;;-2.62;100.00
11444;BME280;5778;47.856;12.154;2023-01-30T00:11:44;96922.28;;;-2.64;100.00
11444;BME280;5778;47.856;12.154;2023-01-30T00:14:12;96908.13;;;-2.69;100.00
11444;BME280;5778;47.856;12.154;2023-01-30T00:16:40;96912.44;;;-2.78;100.00
11444;BME280;5778;47.856;12.154;2023-01-30T00:19:07;96912.06;;;-2.91;100.00
11444;BME280;5778;47.856;12.154;2023-01-30T00:21:36;96910.75;;;-2.95;100.00
11444;BME280;5778;47.856;12.154;2023-01-30T00:24:03;96899.47;;;-3.03;100.00
11444;BME280;5778;47.856;12.154;2023-01-30T00:26:31;96903.88;;;-3.04;100.00
11444;BME280;5778;47.856;12.154;2023-01-30T00:28:58;96902.25;;;-3.05;100.00
11444;BME280;5778;47.856;12.154;2023-01-30T00:31:25;96898.63;;;-3.12;100.00
11444;BME280;5778;47.856;12.154;2023-01-30T00:33:53;96901.22;;;-3.12;100.00
11444;BME280;5778;47.856;12.154;2023-01-30T00:36:23;96900.34;;;-3.20;100.00
11444;BME280;5778;47.856;12.154;2023-01-30T00:38:55;96889.47;;;-3.16;100.00
11444;BME280;5778;47.856;12.154;2023-01-30T00:41:24;96901.09;;;-3.02;100.00
11444;BME280;5778;47.856;12.154;2023-01-30T00:44:17;96891.22;;;-2.99;100.00
11444;BME280;5778;47.856;12.154;2023-01-30T00:47:02;96879.84;;;-2.98;100.00
11444;BME280;5778;47.856;12.154;2023-01-30T00:49:34;96878.84;;;-3.05;100.00
11444;BME280;5778;47.856;12.154;2023-01-30T00:52:01;96879.69;;;-2.96;100.00
11444;BME280;5778;47.856;12.154;2023-01-30T00:54:30;96885.06;;;-2.98;100.00
11444;BME280;5778;47.856;12.154;2023-01-30T00:56:58;96868.09;;;-3.10;100.00
11444;BME280;5778;47.856;12.154;2023-01-30T00:59:29;96873.94;;;-3.08;100.00
11444;BME280;5778;47.856;12.154;2023-01-30T01:01:56;96867.56;;;-3.13;100.00
11444;BME280;5778;47.856;12.154;2023-01-30T01:04:24;96873.03;;;-2.99;100.00
11444;BME280;5778;47.856;12.154;2023-01-30T01:06:52;96863.06;;;-3.03;100.00
11444;BME280;5778;47.856;12.154;2023-01-30T01:09:20;96861.94;;;-3.01;100.00
11444;BME280;5778;47.856;12.154;2023-01-30T01:11:48;96861.13;;;-3.01;100.00
11444;BME280;5778;47.856;12.154;2023-01-30T01:14:15;96856.56;;;-3.07;100.00
11444;BME280;5778;47.856;12.154;2023-01-30T01:16:42;96847.56;;;-3.13;100.00
11444;BME280;5778;47.856;12.154;2023-01-30T01:19:09;96854.31;;;-3.53;100.00
11444;BME280;5778;47.856;12.154;2023-01-30T01:21:40;96851.69;;;-3.36;100.00
11444;BME280;5778;47.856;12.154;2023-01-30T01:24:11;96844.69;;;-3.35;100.00
11444;BME280;5778;47.856;12.154;2023-01-30T01:26:39;96846.84;;;-3.31;100.00
11444;BME280;5778;47.856;12.154;2023-01-30T01:29:13;96844.94;;;-3.46;100.00
11444;BME280;5778;47.856;12.154;2023-01-30T01:31:41;96835.06;;;-3.43;100.00
11444;BME280;5778;47.856;12.154;2023-01-30T01:34:09;96835.88;;;-3.42;100.00
11444;BME280;5778;47.856;12.154;2023-01-30T01:36:37;96836.69;;;-3.42;100.00
11444;BME280;5778;47.856;12.154;2023-01-30T01:39:04;96837.31;;;-3.48;100.00
11444;BME280;5778;47.856;12.154;2023-01-30T01:41:32;96829.16;;;-3.53;100.00
11444;BME280;5778;47.856;12.154;2023-01-30T01:44:04;96819.06;;;-3.56;100.00
11444;BME280;5778;47.856;12.154;2023-01-30T01:46:36;96817.94;;;-3.79;100.00
11444;BME280;5778;47.856;12.154;2023-01-30T01:49:07;96808.06;;;-3.75;100.00
11444;BME280;5778;47.856;12.154;2023-01-30T01:51:41;96812.94;;;-3.47;100.00
11444;BME280;5778;47.856;12.154;2023-01-30T01:54:17;96810.03;;;-3.69;100.00
11444;BME280;5778;47.856;12.154;2023-01-30T01:56:46;96808.91;;;-3.67;100.00
11444;BME280;5778;47.856;12.154;2023-01-30T01:59:20;96811.00;;;-3.70;100.00
11444;BME280;5778;47.856;12.154;2023-01-30T02:01:53;96816.94;;;-4.03;100.00
11444;BME280;5778;47.856;12.154;2023-01-30T02:04:25;96819.84;;;-4.24;100.00
11444;BME280;5778;47.856;12.154;2023-01-30T02:07:09;96816.34;;;-4.67;100.00
11444;BME280;5778;47.856;12.154;2023-01-30T02:09:37;96810.97;;;-5.01;100.00
11444;BME280;5778;47.856;12.154;2023-01-30T02:12:04;96800.75;;;-4.85;100.00
11444;BME280;5778;47.856;12.154;2023-01-30T02:14:36;96795.56;;;-4.85;100.00
11444;BME280;5778;47.856;12.154;2023-01-30T02:17:07;96793.34;;;-4.80;100.00
11444;BME280;5778;47.856;12.154;2023-01-30T02:19:44;96798.94;;;-4.57;100.00
11444;BME280;5778;47.856;12.154;2023-01-30T02:22:34;96786.78;;;-4.57;100.00
11444;BME280;5778;47.856;12.154;2023-01-30T02:25:32;96784.19;;;-4.57;100.00
11444;BME280;5778;47.856;12.154;2023-01-30T02:28:31;96807.00;;;-4.43;100.00
11444;BME280;5778;47.856;12.154;2023-01-30T02:31:26;96806.72;;;-4.40;100.00
11444;BME280;5778;47.856;12.154;2023-01-30T02:36:55;96799.97;;;-4.50;100.00
11444;BME280;5778;47.856;12.154;2023-01-30T02:39:36;96798.03;;;-4.31;100.00
11444;BME280;5778;47.856;12.154;2023-01-30T02:42:15;96800.66;;;-4.48;100.00
11444;BME280;5778;47.856;12.154;2023-01-30T02:44:52;96796.44;;;-4.94;100.00
11444;BME280;5778;47.856;12.154;2023-01-30T02:47:35;96799.75;;;-5.01;100.00
11444;BME280;5778;47.856;12.154;2023-01-30T02:50:13;96799.06;;;-5.21;100.00
11444;BME280;5778;47.856;12.154;2023-01-30T02:52:43;96799.75;;;-5.01;100.00
11444;BME280;5778;47.856;12.154;2023-01-30T02:55:17;96801.44;;;-4.83;100.00
11444;BME280;5778;47.856;12.154;2023-01-30T02:57:45;96799.31;;;-5.24;100.00
11444;BME280;5778;47.856;12.154;2023-01-30T03:03:16;96796.06;;;-4.99;100.00
11444;BME280;5778;47.856;12.154;2023-01-30T03:06:01;96788.94;;;-4.97;100.00
11444;BME280;5778;47.856;12.154;2023-01-30T03:08:35;96794.91;;;-5.14;100.00
11444;BME280;5778;47.856;12.154;2023-01-30T03:11:08;96798.94;;;-5.02;100.00
11444;BME280;5778;47.856;12.154;2023-01-30T03:13:47;96800.69;;;-5.20;100.00
11444;BME280;5778;47.856;12.154;2023-01-30T03:16:21;96795.75;;;-4.96;100.00
11444;BME280;5778;47.856;12.154;2023-01-30T03:18:53;96793.84;;;-4.94;100.00
11444;BME280;5778;47.856;12.154;2023-01-30T03:21:21;96795.75;;;-4.51;100.00
11444;BME280;5778;47.856;12.154;2023-01-30T03:23:51;96803.97;;;-4.21;100.00
11444;BME280;5778;47.856;12.154;2023-01-30T03:26:22;96812.94;;;-4.15;100.00
11444;BME280;5778;47.856;12.154;2023-01-30T03:28:50;96821.47;;;-4.05;100.00
11444;BME280;5778;47.856;12.154;2023-01-30T03:31:20;96830.34;;;-3.90;100.00
11444;BME280;5778;47.856;12.154;2023-01-30T03:33:52;96830.81;;;-3.95;100.00
11444;BME280;5778;47.856;12.154;2023-01-30T03:36:23;96833.03;;;-4.17;100.00
11444;BME280;5778;47.856;12.154;2023-01-30T03:38:50;96835.56;;;-4.25;100.00
11444;BME280;5778;47.856;12.154;2023-01-30T03:41:22;96831.31;;;-4.09;100.00
11444;BME280;5778;47.856;12.154;2023-01-30T03:43:54;96832.00;;;-4.07;100.00
11444;BME280;5778;47.856;12.154;2023-01-30T03:46:24;96831.50;;;-4.10;100.00
11444;BME280;5778;47.856;12.154;2023-01-30T03:48:51;96836.91;;;-4.21;100.00
11444;BME280;5778;47.856;12.154;2023-01-30T03:51:23;96842.25;;;-4.23;100.00
11444;BME280;5778;47.856;12.154;2023-01-30T03:53:50;96843.38;;;-4.25;100.00
11444;BME280;5778;47.856;12.154;2023-01-30T03:56:17;96832.16;;;-4.26;100.00
11444;BME280;5778;47.856;12.154;2023-01-30T03:58:45;96834.47;;;-4.23;100.00
11444;BME280;5778;47.856;12.154;2023-01-30T04:01:19;96847.06;;;-4.28;100.00
11444;BME280;5778;47.856;12.154;2023-01-30T04:03:49;96849.16;;;-4.31;100.00
11444;BME280;5778;47.856;12.154;2023-01-30T04:06:16;96858.84;;;-4.33;100.00
11444;BME280;5778;47.856;12.154;2023-01-30T04:08:47;96856.47;;;-4.27;100.00
11444;BME280;5778;47.856;12.154;2023-01-30T04:11:27;96859.31;;;-4.20;100.00
11444;BME280;5778;47.856;12.154;2023-01-30T04:13:55;96832.91;;;-4.16;100.00
11444;BME280;5778;47.856;12.154;2023-01-30T04:16:26;96833.78;;;-4.07;100.00
11444;BME280;5778;47.856;12.154;2023-01-30T04:19:05;96832.00;;;-4.07;100.00
11444;BME280;5778;47.856;12.154;2023-01-30T04:21:32;96835.22;;;-4.13;100.00
11444;BME280;5778;47.856;12.154;2023-01-30T04:24:01;96835.22;;;-4.13;100.00
11444;BME280;5778;47.856;12.154;2023-01-30T04:26:31;96825.19;;;-4.08;100.00
11444;BME280;5778;47.856;12.154;2023-01-30T04:28:58;96839.16;;;-4.26;100.00
11444;BME280;5778;47.856;12.154;2023-01-30T04:31:27;96820.69;;;-4.41;100.00
11444;BME280;5778;47.856;12.154;2023-01-30T04:34:01;96817.19;;;-4.32;100.00
11444;BME280;5778;47.856;12.154;2023-01-30T04:36:30;96828.53;;;-4.33;100.00
11444;BME280;5778;47.856;12.154;2023-01-30T04:39:02;96827.34;;;-4.56;100.00
11444;BME280;5778;47.856;12.154;2023-01-30T04:41:30;96807.69;;;-4.58;100.00
11444;BME280;5778;47.856;12.154;2023-01-30T04:44:00;96796.03;;;-4.72;100.00
11444;BME280;5778;47.856;12.154;2023-01-30T04:46:57;96814.84;;;-4.70;100.00
11444;BME280;5778;47.856;12.154;2023-01-30T04:49:24;96815.44;;;-4.76;100.00
11444;BME280;5778;47.856;12.154;2023-01-30T04:51:52;96818.28;;;-4.69;100.00
11444;BME280;5778;47.856;12.154;2023-01-30T04:54:26;96822.88;;;-4.28;100.00
11444;BME280;5778;47.856;12.154;2023-01-30T04:56:54;96834.97;;;-4.19;100.00
11444;BME280;5778;47.856;12.154;2023-01-30T04:59:22;96837.56;;;-4.19;100.00
11444;BME280;5778;47.856;12.154;2023-01-30T05:01:53;96832.38;;;-4.37;100.00
11444;BME280;5778;47.856;12.154;2023-01-30T05:04:22;96816.50;;;-4.51;100.00
11444;BME280;5778;47.856;12.154;2023-01-30T05:06:49;96815.88;;;-4.63;100.00
11444;BME280;5778;47.856;12.154;2023-01-30T05:09:18;96825.81;;;-4.76;100.00
11444;BME280;5778;47.856;12.154;2023-01-30T05:11:48;96826.25;;;-4.80;100.00
11444;BME280;5778;47.856;12.154;2023-01-30T05:14:16;96831.38;;;-4.71;100.00
11444;BME280;5778;47.856;12.154;2023-01-30T05:16:44;96819.84;;;-4.76;100.00
11444;BME280;5778;47.856;12.154;2023-01-30T05:19:13;96803.38;;;-4.67;100.00
11444;BME280;5778;47.856;12.154;2023-01-30T05:21:40;96790.84;;;-4.72;100.00
11444;BME280;5778;47.856;12.154;2023-01-30T05:24:09;96781.50;;;-4.65;100.00
11444;BME280;5778;47.856;12.154;2023-01-30T05:26:37;96772.47;;;-4.61;100.00
11444;BME280;5778;47.856;12.154;2023-01-30T05:29:05;96762.84;;;-4.51;100.00
11444;BME280;5778;47.856;12.154;2023-01-30T05:31:33;96740.88;;;-4.39;100.00
11444;BME280;5778;47.856;12.154;2023-01-30T05:34:01;96733.75;;;-4.11;100.00
11444;BME280;5778;47.856;12.154;2023-01-30T05:36:28;96737.59;;;-3.98;100.00
11444;BME280;5778;47.856;12.154;2023-01-30T05:38:55;96727.06;;;-3.96;100.00
11444;BME280;5778;47.856;12.154;2023-01-30T05:41:23;96724.66;;;-3.90;100.00
11444;BME280;5778;47.856;12.154;2023-01-30T05:43:58;96721.44;;;-3.84;100.00
11444;BME280;5778;47.856;12.154;2023-01-30T05:46:26;96720.38;;;-3.73;100.00
11444;BME280;5778;47.856;12.154;2023-01-30T05:48:54;96730.09;;;-3.75;100.00
11444;BME280;5778;47.856;12.154;2023-01-30T05:51:22;96731.78;;;-3.66;100.00
11444;BME280;5778;47.856;12.154;2023-01-30T05:54:03;96727.09;;;-3.63;100.00
11444;BME280;5778;47.856;12.154;2023-01-30T05:56:30;96720.06;;;-3.37;100.00
11444;BME280;5778;47.856;12.154;2023-01-30T05:58:59;96705.91;;;-3.42;100.00
11444;BME280;5778;47.856;12.154;2023-01-30T06:01:28;96706.03;;;-3.52;100.00
11444;BME280;5778;47.856;12.154;2023-01-30T06:03:57;96701.53;;;-3.42;100.00
11444;BME280;5778;47.856;12.154;2023-01-30T06:06:25;96698.94;;;-3.34;100.00
11444;BME280;5778;47.856;12.154;2023-01-30T06:08:53;96706.94;;;-3.19;100.00
11444;BME280;5778;47.856;12.154;2023-01-30T06:11:21;96707.63;;;-3.17;100.00
11444;BME280;5778;47.856;12.154;2023-01-30T06:14:05;96701.63;;;-3.10;100.00
11444;BME280;5778;47.856;12.154;2023-01-30T06:16:35;96706.84;;;-3.02;100.00
11444;BME280;5778;47.856;12.154;2023-01-30T06:19:03;96712.19;;;-3.03;100.00
11444;BME280;5778;47.856;12.154;2023-01-30T06:21:30;96697.22;;;-3.09;100.00
11444;BME280;5778;47.856;12.154;2023-01-30T06:24:07;96689.56;;;-3.11;100.00
11444;BME280;5778;47.856;12.154;2023-01-30T06:26:34;96685.03;;;-3.09;100.00
11444;BME280;5778;47.856;12.154;2023-01-30T06:29:01;96677.72;;;-3.05;100.00
11444;BME280;5778;47.856;12.154;2023-01-30T06:31:29;96672.03;;;-3.09;100.00
11444;BME280;5778;47.856;12.154;2023-01-30T06:33:58;96681.63;;;-3.17;100.00
11444;BME280;5778;47.856;12.154;2023-01-30T06:36:25;96683.72;;;-3.13;100.00
11444;BME280;5778;47.856;12.154;2023-01-30T06:38:53;96686.00;;;-3.18;100.00
11444;BME280;5778;47.856;12.154;2023-01-30T06:41:21;96690.22;;;-3.17;100.00
11444;BME280;5778;47.856;12.154;2023-01-30T06:43:58;96695.75;;;-3.12;100.00
11444;BME280;5778;47.856;12.154;2023-01-30T06:46:29;96706.84;;;-3.10;100.00
11444;BME280;5778;47.856;12.154;2023-01-30T06:49:00;96720.19;;;-3.05;100.00
11444;BME280;5778;47.856;12.154;2023-01-30T06:51:27;96710.25;;;-3.01;100.00
11444;BME280;5778;47.856;12.154;2023-01-30T06:53:55;96713.22;;;-2.96;100.00
11444;BME280;5778;47.856;12.154;2023-01-30T06:56:22;96715.31;;;-2.92;100.00
11444;BME280;5778;47.856;12.154;2023-01-30T06:58:49;96708.81;;;-2.96;100.00
11444;BME280;5778;47.856;12.154;2023-01-30T07:01:17;96696.28;;;-2.92;100.00
11444;BME280;5778;47.856;12.154;2023-01-30T07:03:45;96705.88;;;-2.93;100.00
11444;BME280;5778;47.856;12.154;2023-01-30T07:06:14;96722.94;;;-2.98;100.00
11444;BME280;5778;47.856;12.154;2023-01-30T07:08:42;96727.97;;;-2.97;100.00
11444;BME280;5778;47.856;12.154;2023-01-30T07:11:10;96728.47;;;-2.93;100.00
11444;BME280;5778;47.856;12.154;2023-01-30T07:13:37;96731.59;;;-2.82;100.00
11444;BME280;5778;47.856;12.154;2023-01-30T07:16:05;96721.53;;;-2.77;100.00
11444;BME280;5778;47.856;12.154;2023-01-30T07:18:33;96725.59;;;-2.66;100.00
11444;BME280;5778;47.856;12.154;2023-01-30T07:21:00;96714.38;;;-2.59;100.00
11444;BME280;5778;47.856;12.154;2023-01-30T07:23:29;96717.00;;;-2.59;100.00
11444;BME280;5778;47.856;12.154;2023-01-30T07:25:57;96721.88;;;-2.56;100.00
11444;BME280;5778;47.856;12.154;2023-01-30T07:28:24;96722.69;;;-2.55;100.00
11444;BME280;5778;47.856;12.154;2023-01-30T07:30:52;96705.09;;;-2.53;100.00
11444;BME280;5778;47.856;12.154;2023-01-30T07:33:19;96712.75;;;-2.52;100.00
11444;BME280;5778;47.856;12.154;2023-01-30T07:35:47;96717.50;;;-2.47;100.00
11444;BME280;5778;47.856;12.154;2023-01-30T07:38:14;96720.25;;;-2.41;100.00
11444;BME280;5778;47.856;12.154;2023-01-30T07:40:43;96713.91;;;-2.38;100.00
11444;BME280;5778;47.856;12.154;2023-01-30T07:43:12;96712.09;;;-2.30;100.00
11444;BME280;5778;47.856;12.154;2023-01-30T07:45:40;96708.69;;;-2.22;100.00
11444;BME280;5778;47.856;12.154;2023-01-30T07:48:10;96708.69;;;-2.14;100.00
11444;BME280;5778;47.856;12.154;2023-01-30T07:50:38;96711.44;;;-2.08;100.00
11444;BME280;5778;47.856;12.154;2023-01-30T07:53:06;96714.53;;;-2.04;100.00
11444;BME280;5778;47.856;12.154;2023-01-30T07:55:33;96722.84;;;-2.01;100.00
11444;BME280;5778;47.856;12.154;2023-01-30T07:58:02;96719.25;;;-1.84;100.00
11444;BME280;5778;47.856;12.154;2023-01-30T08:00:30;96728.31;;;-1.80;100.00
11444;BME280;5778;47.856;12.154;2023-01-30T08:02:58;96730.94;;;-1.72;100.00
11444;BME280;5778;47.856;12.154;2023-01-30T08:05:25;96735.63;;;-1.67;100.00
11444;BME280;5778;47.856;12.154;2023-01-30T08:07:54;96724.06;;;-1.65;100.00
11444;BME280;5778;47.856;12.154;2023-01-30T08:10:22;96731.88;;;-1.57;100.00
11444;BME280;5778;47.856;12.154;2023-01-30T08:12:50;96720.97;;;-1.60;100.00
11444;BME280;5778;47.856;12.154;2023-01-30T08:15:18;96722.06;;;-1.47;100.00
11444;BME280;5778;47.856;12.154;2023-01-30T08:17:52;96722.34;;;-1.42;100.00
11444;BME280;5778;47.856;12.154;2023-01-30T08:20:19;96718.06;;;-1.27;100.00
11444;BME280;5778;47.856;12.154;2023-01-30T08:22:47;96710.69;;;-1.15;100.00
11444;BME280;5778;47.856;12.154;2023-01-30T08:25:14;96710.69;;;-0.85;100.00
11444;BME280;5778;47.856;12.154;2023-01-30T08:27:41;96708.41;;;-0.88;100.00
11444;BME280;5778;47.856;12.154;2023-01-30T08:30:10;96706.59;;;-0.57;100.00
11444;BME280;5778;47.856;12.154;2023-01-30T08:32:39;96702.28;;;-0.50;100.00
11444;BME280;5778;47.856;12.154;2023-01-30T08:35:08;96700.63;;;-0.43;100.00
11444;BME280;5778;47.856;12.154;2023-01-30T08:37:35;96700.66;;;-0.51;100.00
11444;BME280;5778;47.856;12.154;2023-01-30T08:40:03;96715.41;;;-0.58;100.00
11444;BME280;5778;47.856;12.154;2023-01-30T08:42:30;96689.97;;;-0.19;100.00
11444;BME280;5778;47.856;12.154;2023-01-30T08:44:57;96702.53;;;-0.37;100.00
11444;BME280;5778;47.856;12.154;2023-01-30T08:47:25;96693.69;;;-0.36;100.00
11444;BME280;5778;47.856;12.154;2023-01-30T08:49:54;96690.47;;;-0.38;100.00
11444;BME280;5778;47.856;12.154;2023-01-30T08:52:21;96682.78;;;-0.39;100.00
11444;BME280;5778;47.856;12.154;2023-01-30T08:54:48;96689.38;;;-0.29;100.00
11444;BME280;5778;47.856;12.154;2023-01-30T08:57:15;96685.44;;;-0.25;100.00
11444;BME280;5778;47.856;12.154;2023-01-30T08:59:42;96697.09;;;-0.13;100.00
11444;BME280;5778;47.856;12.154;2023-01-30T09:02:09;96691.28;;;-0.23;100.00
11444;BME280;5778;47.856;12.154;2023-01-30T09:04:36;96681.59;;;-0.15;100.00
11444;BME280;5778;47.856;12.154;2023-01-30T09:07:05;96675.56;;;-0.15;100.00
11444;BME280;5778;47.856;12.154;2023-01-30T09:09:32;96673.84;;;-0.08;100.00
11444;BME280;5778;47.856;12.154;2023-01-30T09:11:59;96675.59;;;-0.01;100.00
11444;BME280;5778;47.856;12.154;2023-01-30T09:14:26;96679.66;;;0.16;100.00
11444;BME280;5778;47.856;12.154;2023-01-30T09:16:54;96688.66;;;-0.01;100.00
11444;BME280;5778;47.856;12.154;2023-01-30T09:19:21;96681.38;;;0.24;100.00
11444;BME280;5778;47.856;12.154;2023-01-30T09:21:48;96681.66;;;0.43;100.00
11444;BME280;5778;47.856;12.154;2023-01-30T09:24:17;96670.19;;;0.59;100.00
11444;BME280;5778;47.856;12.154;2023-01-30T09:26:46;96667.47;;;0.67;100.00
11444;BME280;5778;47.856;12.154;2023-01-30T09:29:13;96660.56;;;0.95;100.00
11444;BME280;5778;47.856;12.154;2023-01-30T09:31:41;96657.13;;;1.09;100.00
11444;BME280;5778;47.856;12.154;2023-01-30T09:34:08;96672.00;;;1.08;100.00
11444;BME280;5778;47.856;12.154;2023-01-30T09:36:35;96652.34;;;1.19;100.00
11444;BME280;5778;47.856;12.154;2023-01-30T09:39:04;96653.81;;;1.21;100.00
11444;BME280;5778;47.856;12.154;2023-01-30T09:41:45;96660.91;;;1.27;100.00
11444;BME280;5778;47.856;12.154;2023-01-30T09:44:49;96651.50;;;1.33;100.00
11444;BME280;5778;47.856;12.154;2023-01-30T09:47:23;96666.72;;;1.44;100.00
11444;BME280;5778;47.856;12.154;2023-01-30T09:50:02;96671.97;;;1.44;100.00
11444;BME280;5778;47.856;12.154;2023-01-30T09:52:43;96672.72;;;1.80;100.00
11444;BME280;5778;47.856;12.154;2023-01-30T09:55:16;96668.69;;;1.84;100.00
11444;BME280;5778;47.856;12.154;2023-01-30T09:57:46;96649.72;;;1.82;100.00
11444;BME280;5778;47.856;12.154;2023-01-30T10:00:20;96643.66;;;1.81;100.00
11444;BME280;5778;47.856;12.154;2023-01-30T10:02:54;96640.22;;;2.02;100.00
11444;BME280;5778;47.856;12.154;2023-01-30T10:05:29;96616.44;;;2.10;100.00
11444;BME280;5778;47.856;12.154;2023-01-30T10:08:10;96618.59;;;2.27;100.00
11444;BME280;5778;47.856;12.154;2023-01-30T10:10:46;96613.03;;;2.50;100.00
11444;BME280;5778;47.856;12.154;2023-01-30T10:13:44;96604.00;;;2.59;100.00
11444;BME280;5778;47.856;12.154;2023-01-30T10:16:17;96599.94;;;2.56;100.00
11444;BME280;5778;47.856;12.154;2023-01-30T10:19:14;96605.22;;;2.63;100.00
11444;BME280;5778;47.856;12.154;2023-01-30T10:21:50;96594.16;;;2.80;100.00
11444;BME280;5778;47.856;12.154;2023-01-30T10:24:28;96575.72;;;2.61;100.00
11444;BME280;5778;47.856;12.154;2023-01-30T10:27:00;96584.69;;;2.73;100.00
11444;BME280;5778;47.856;12.154;2023-01-30T10:29:30;96584.31;;;2.89;100.00
11444;BME280;5778;47.856;12.154;2023-01-30T10:32:02;96579.50;;;3.18;100.00
11444;BME280;5778;47.856;12.154;2023-01-30T10:34:35;96593.94;;;3.55;100.00
11444;BME280;5778;47.856;12.154;2023-01-30T10:37:07;96595.75;;;3.54;100.00
11444;BME280;5778;47.856;12.154;2023-01-30T10:39:43;96581.38;;;3.57;100.00
11444;BME280;5778;47.856;12.154;2023-01-30T10:42:12;96563.59;;;3.72;92.89
11444;BME280;5778;47.856;12.154;2023-01-30T10:44:44;96565.75;;;4.01;89.62
11444;BME280;5778;47.856;12.154;2023-01-30T10:47:30;96552.22;;;4.04;85.91
11444;BME280;5778;47.856;12.154;2023-01-30T10:50:12;96515.16;;;4.05;83.32
11444;BME280;5778;47.856;12.154;2023-01-30T10:52:44;96514.09;;;4.19;82.21
11444;BME280;5778;47.856;12.154;2023-01-30T10:55:23;96514.69;;;4.21;79.30
11444;BME280;5778;47.856;12.154;2023-01-30T10:57:57;96520.91;;;4.40;81.56
11444;BME280;5778;47.856;12.154;2023-01-30T11:00:34;96524.38;;;4.34;77.63
11444;BME280;5778;47.856;12.154;2023-01-30T11:03:11;96544.72;;;4.07;77.22
11444;BME280;5778;47.856;12.154;2023-01-30T11:05:45;96545.75;;;4.00;82.38
11444;BME280;5778;47.856;12.154;2023-01-30T11:08:22;96527.50;;;4.05;83.40
11444;BME280;5778;47.856;12.154;2023-01-30T11:10:50;96522.75;;;4.33;79.07
11444;BME280;5778;47.856;12.154;2023-01-30T11:13:20;96526.97;;;4.47;78.58
11444;BME280;5778;47.856;12.154;2023-01-30T11:15:53;96542.03;;;4.77;80.94
11444;BME280;5778;47.856;12.154;2023-01-30T11:18:22;96538.84;;;4.69;77.13
11444;BME280;5778;47.856;12.154;2023-01-30T11:21:00;96518.22;;;4.90;82.60
11444;BME280;5778;47.856;12.154;2023-01-30T11:23:31;96510.84;;;5.05;86.14
11444;BME280;5778;47.856;12.154;2023-01-30T11:26:00;96495.88;;;4.99;84.47
11444;BME280;5778;47.856;12.154;2023-01-30T11:28:34;96484.31;;;5.00;82.79
11444;BME280;5778;47.856;12.154;2023-01-30T11:31:03;96491.41;;;5.00;81.16
11444;BME280;5778;47.856;12.154;2023-01-30T11:33:35;96480.06;;;4.99;78.81
11444;BME280;5778;47.856;12.154;2023-01-30T11:36:21;96474.47;;;4.89;73.06
11444;BME280;5778;47.856;12.154;2023-01-30T11:38:56;96480.28;;;4.98;69.27
11444;BME280;5778;47.856;12.154;2023-01-30T11:41:23;96469.09;;;5.02;68.69
11444;BME280;5778;47.856;12.154;2023-01-30T11:43:58;96460.34;;;5.08;73.83
11444;BME280;5778;47.856;12.154;2023-01-30T11:46:30;96459.38;;;5.03;82.03
11444;BME280;5778;47.856;12.154;2023-01-30T11:49:02;96445.91;;;5.11;83.66
11444;BME280;5778;47.856;12.154;2023-01-30T11:51:32;96445.53;;;5.07;86.39
11444;BME280;5778;47.856;12.154;2023-01-30T11:54:03;96440.06;;;5.33;88.16
11444;BME280;5778;47.856;12.154;2023-01-30T11:56:35;96435.66;;;5.70;88.10
11444;BME280;5778;47.856;12.154;2023-01-30T11:59:06;96429.75;;;5.50;98.67
11444;BME280;5778;47.856;12.154;2023-01-30T12:01:40;96429.69;;;5.56;98.86
11444;BME280;5778;47.856;12.154;2023-01-30T12:04:10;96437.31;;;5.22;97.01
11444;BME280;5778;47.856;12.154;2023-01-30T12:06:40;96407.16;;;5.18;100.00
11444;BME280;5778;47.856;12.154;2023-01-30T12:09:30;96404.28;;;5.19;100.00
11444;BME280;5778;47.856;12.154;2023-01-30T12:11:58;96388.97;;;5.10;100.00
11444;BME280;5778;47.856;12.154;2023-01-30T12:14:34;96400.66;;;4.96;100.00
11444;BME280;5778;47.856;12.154;2023-01-30T12:17:11;96402.66;;;5.18;100.00
11444;BME280;5778;47.856;12.154;2023-01-30T12:19:55;96408.09;;;5.23;100.00
11444;BME280;5778;47.856;12.154;2023-01-30T12:22:30;96395.44;;;5.32;100.00
11444;BME280;5778;47.856;12.154;2023-01-30T12:24:58;96380.66;;;5.49;100.00
11444;BME280;5778;47.856;12.154;2023-01-30T12:27:42;96383.22;;;5.80;100.00
11444;BME280;5778;47.856;12.154;2023-01-30T12:30:19;96383.78;;;5.82;100.00
11444;BME280;5778;47.856;12.154;2023-01-30T12:32:59;96381.50;;;5.85;100.00
11444;BME280;5778;47.856;12.154;2023-01-30T12:35:35;96384.34;;;5.66;100.00
11444;BME280;5778;47.856;12.154;2023-01-30T12:38:15;96375.56;;;5.54;100.00
11444;BME280;5778;47.856;12.154;2023-01-30T12:40:54;96358.47;;;5.38;100.00
11444;BME280;5778;47.856;12.154;2023-01-30T12:43:40;96357.34;;;5.28;100.00
11444;BME280;5778;47.856;12.154;2023-01-30T12:46:21;96360.00;;;5.28;100.00
11444;BME280;5778;47.856;12.154;2023-01-30T12:49:00;96346.06;;;5.21;100.00
11444;BME280;5778;47.856;12.154;2023-01-30T12:51:59;96346.91;;;5.21;100.00
11444;BME280;5778;47.856;12.154;2023-01-30T12:54:43;96349.75;;;5.20;100.00
11444;BME280;5778;47.856;12.154;2023-01-30T12:57:19;96345.34;;;5.14;100.00
11444;BME280;5778;47.856;12.154;2023-01-30T12:59:55;96347.53;;;5.17;100.00
11444;BME280;5778;47.856;12.154;2023-01-30T13:02:46;96345.34;;;5.14;100.00
11444;BME280;5778;47.856;12.154;2023-01-30T13:05:28;96335.75;;;5.19;100.00
11444;BME280;5778;47.856;12.154;2023-01-30T13:08:09;96339.63;;;5.17;100.00
11444;BME280;5778;47.856;12.154;2023-01-30T13:10:43;96337.13;;;5.22;100.00
11444;BME280;5778;47.856;12.154;2023-01-30T13:13:20;96330.06;;;5.22;100.00
11444;BME280;5778;47.856;12.154;2023-01-30T13:15:54;96317.81;;;5.28;100.00
11444;BME280;5778;47.856;12.154;2023-01-30T13:18:25;96319.66;;;5.27;100.00
11444;BME280;5778;47.856;12.154;2023-01-30T13:21:06;96313.16;;;5.30;100.00
11444;BME280;5778;47.856;12.154;2023-01-30T13:23:45;96318.31;;;5.36;100.00
11444;BME280;5778;47.856;12.154;2023-01-30T13:26:16;96315.47;;;5.38;100.00